createdAt,value
2022-10-22T00:00:27.857Z,17.7
2022-10-22T00:01:27.847Z,17.76
2022-10-22T00:02:27.841Z,17.84
2022-10-22T00:03:27.832Z,17.91
2022-10-22T00:04:27.818Z,18.07
2022-10-22T00:05:27.807Z,18.07
2022-10-22T00:06:27.800Z,18.07
2022-10-22T00:07:27.788Z,18.03
2022-10-22T00:08:27.776Z,17.91
2022-10-22T00:09:27.772Z,17.91
2022-10-22T00:10:27.754Z,18.03
2022-10-22T00:11:27.751Z,18.03
2022-10-22T00:12:27.732Z,18.22
2022-10-22T00:13:27.726Z,18.12
2022-10-22T00:14:27.711Z,18.13
2022-10-22T00:15:27.701Z,18.09
2022-10-22T00:16:27.695Z,17.99
2022-10-22T00:17:27.679Z,18.13
2022-10-22T00:18:27.672Z,18.17
2022-10-22T00:19:27.667Z,18.36
2022-10-22T00:20:27.645Z,18.42
2022-10-22T00:21:27.635Z,18.17
2022-10-22T00:22:27.631Z,17.82
2022-10-22T00:23:27.615Z,17.92
2022-10-22T00:24:27.607Z,18.15
2022-10-22T00:25:27.613Z,18.22
2022-10-22T00:26:27.585Z,18.44
2022-10-22T00:27:27.578Z,18.77
2022-10-22T00:28:27.568Z,18.62
2022-10-22T00:29:27.555Z,18.52
2022-10-22T00:30:27.540Z,18.39
2022-10-22T00:31:27.532Z,18.42
2022-10-22T00:32:27.518Z,18.33
2022-10-22T00:33:27.509Z,18.22
2022-10-22T00:34:27.500Z,18.12
2022-10-22T00:35:27.492Z,17.87
2022-10-22T00:36:28.487Z,18.06
2022-10-22T00:37:27.469Z,17.84
2022-10-22T00:38:27.456Z,17.76
2022-10-22T00:39:27.446Z,17.81
2022-10-22T00:40:27.439Z,17.92
2022-10-22T00:41:27.431Z,17.81
2022-10-22T00:42:27.416Z,17.91
2022-10-22T00:43:27.407Z,17.94
2022-10-22T00:44:27.392Z,18.12
2022-10-22T00:45:27.387Z,18.17
2022-10-22T00:46:27.382Z,18.22
2022-10-22T00:47:27.365Z,18.29
2022-10-22T00:48:27.347Z,18.27
2022-10-22T00:49:27.340Z,18.42
2022-10-22T00:50:27.327Z,18.43
2022-10-22T00:51:27.326Z,18.42
2022-10-22T00:52:27.315Z,18.4
2022-10-22T00:53:27.302Z,18.36
2022-10-22T00:54:27.287Z,18.47
2022-10-22T00:55:27.276Z,18.43
2022-10-22T00:56:27.266Z,18.33
2022-10-22T00:57:27.264Z,18.34
2022-10-22T00:58:27.248Z,18.4
2022-10-22T00:59:27.240Z,18.39
2022-10-22T01:00:27.223Z,18.54
2022-10-22T01:01:27.214Z,18.55
2022-10-22T01:02:27.208Z,18.52
2022-10-22T01:03:27.192Z,18.72
2022-10-22T01:04:27.193Z,18.58
2022-10-22T01:05:27.168Z,18.72
2022-10-22T01:06:27.163Z,18.61
2022-10-22T01:07:27.155Z,18.44
2022-10-22T01:08:27.140Z,18.4
2022-10-22T01:09:27.126Z,18.24
2022-10-22T01:10:27.124Z,18.25
2022-10-22T01:11:27.110Z,18.29
2022-10-22T01:12:27.096Z,18.22
2022-10-22T01:13:27.085Z,18.25
2022-10-22T01:14:27.080Z,18.18
2022-10-22T01:15:27.065Z,18.13
2022-10-22T01:16:27.058Z,18.17
2022-10-22T01:17:27.042Z,18.1
2022-10-22T01:18:27.042Z,18.1
2022-10-22T01:19:27.019Z,17.78
2022-10-22T01:20:27.019Z,17.66
2022-10-22T01:21:28.003Z,17.47
2022-10-22T01:22:26.992Z,17.28
2022-10-22T01:23:26.976Z,17.18
2022-10-22T01:24:26.982Z,17.17
2022-10-22T01:25:26.957Z,17.23
2022-10-22T01:26:26.945Z,17.53
2022-10-22T01:27:26.940Z,17.66
2022-10-22T01:28:26.927Z,17.64
2022-10-22T01:29:26.912Z,17.71
2022-10-22T01:30:26.907Z,17.64
2022-10-22T01:31:26.898Z,17.67
2022-10-22T01:32:26.884Z,17.66
2022-10-22T01:33:26.880Z,17.59
2022-10-22T01:34:26.862Z,17.71
2022-10-22T01:35:26.853Z,17.67
2022-10-22T01:36:26.848Z,17.78
2022-10-22T01:37:26.829Z,17.78
2022-10-22T01:38:26.820Z,17.89
2022-10-22T01:39:26.807Z,17.91
2022-10-22T01:40:26.806Z,17.74
2022-10-22T01:41:26.792Z,17.78
2022-10-22T01:42:26.783Z,17.81
2022-10-22T01:43:26.786Z,17.59
2022-10-22T01:44:26.756Z,17.54
2022-10-22T01:45:26.747Z,17.62
2022-10-22T01:46:26.746Z,17.62
2022-10-22T01:47:26.721Z,17.81
2022-10-22T01:48:26.721Z,17.66
2022-10-22T01:49:26.707Z,17.79
2022-10-22T01:50:26.690Z,17.76
2022-10-22T01:51:26.681Z,17.81
2022-10-22T01:52:26.669Z,18.06
2022-10-22T01:53:26.660Z,18.13
2022-10-22T01:54:26.655Z,18.15
2022-10-22T01:55:26.644Z,18.04
2022-10-22T01:56:26.628Z,18.03
2022-10-22T01:57:26.616Z,18.09
2022-10-22T01:58:26.607Z,18.03
2022-10-22T01:59:26.593Z,17.87
2022-10-22T02:00:26.581Z,17.78
2022-10-22T02:01:26.575Z,17.69
2022-10-22T02:02:26.570Z,17.63
2022-10-22T02:03:26.630Z,17.69
2022-10-22T02:04:26.555Z,17.91
2022-10-22T02:05:26.534Z,18.15
2022-10-22T02:06:26.526Z,18.06
2022-10-22T02:07:26.511Z,18.13
2022-10-22T02:08:26.504Z,18.19
2022-10-22T02:09:26.517Z,18.09
2022-10-22T02:10:26.478Z,18.07
2022-10-22T02:11:26.474Z,18.15
2022-10-22T02:12:26.458Z,18.18
2022-10-22T02:13:26.448Z,18.12
2022-10-22T02:14:26.441Z,18.1
2022-10-22T02:15:26.433Z,18.28
2022-10-22T02:16:26.430Z,18.29
2022-10-22T02:17:26.412Z,18.34
2022-10-22T02:18:26.396Z,18.29
2022-10-22T02:19:26.389Z,18.27
2022-10-22T02:20:26.372Z,18.28
2022-10-22T02:21:26.359Z,18.21
2022-10-22T02:22:26.351Z,18.02
2022-10-22T02:23:26.359Z,17.67
2022-10-22T02:24:26.330Z,17.43
2022-10-22T02:25:26.323Z,17.15
2022-10-22T02:26:26.310Z,17.47
2022-10-22T02:27:26.297Z,17.54
2022-10-22T02:28:26.289Z,17.67
2022-10-22T02:29:26.278Z,17.5
2022-10-22T02:30:33.886Z,17.38
2022-10-22T02:31:26.252Z,17.22
2022-10-22T02:32:33.891Z,17.32
2022-10-22T02:33:34.872Z,17.71
2022-10-22T02:34:33.878Z,18.06
2022-10-22T02:35:34.869Z,18.24
2022-10-22T02:36:33.854Z,18.07
2022-10-22T02:37:26.192Z,17.76
2022-10-22T02:38:33.826Z,17.94
2022-10-22T02:39:34.794Z,18.21
2022-10-22T02:40:33.809Z,18.24
2022-10-22T02:41:26.163Z,18.13
2022-10-22T02:42:26.144Z,18.17
2022-10-22T02:43:26.141Z,18.04
2022-10-22T02:44:26.125Z,17.97
2022-10-22T02:45:26.106Z,18.1
2022-10-22T02:46:26.116Z,18.13
2022-10-22T02:47:26.106Z,17.76
2022-10-22T02:48:26.083Z,17.57
2022-10-22T02:49:26.069Z,17.38
2022-10-22T02:50:26.062Z,17.29
2022-10-22T02:51:26.044Z,17.18
2022-10-22T02:52:26.044Z,17.78
2022-10-22T02:53:26.025Z,18.13
2022-10-22T02:54:26.012Z,17.79
2022-10-22T02:55:26.032Z,17.79
2022-10-22T02:56:26.033Z,17.7
2022-10-22T02:57:26.018Z,17.81
2022-10-22T02:58:26.002Z,17.95
2022-10-22T02:59:25.991Z,17.81
2022-10-22T03:00:25.998Z,17.43
2022-10-22T03:01:26.023Z,17.18
2022-10-22T03:02:26.986Z,17.14
2022-10-22T03:03:25.977Z,17.17
2022-10-22T03:04:26.054Z,17.04
2022-10-22T03:05:25.922Z,17.03
2022-10-22T03:07:25.886Z,17.2
2022-10-22T03:08:25.862Z,17.22
2022-10-22T03:09:25.854Z,17.11
2022-10-22T03:10:25.854Z,17.41
2022-10-22T03:11:25.836Z,17.67
2022-10-22T03:12:25.822Z,17.76
2022-10-22T03:13:25.820Z,17.81
2022-10-22T03:14:25.802Z,17.81
2022-10-22T03:15:25.810Z,18.09
2022-10-22T03:16:25.779Z,18.02
2022-10-22T03:17:25.781Z,17.84
2022-10-22T03:18:25.763Z,17.64
2022-10-22T03:19:25.752Z,17.63
2022-10-22T03:20:25.746Z,17.44
2022-10-22T03:21:25.736Z,17.62
2022-10-22T03:22:25.721Z,17.63
2022-10-22T03:23:25.708Z,17.62
2022-10-22T03:24:25.700Z,17.79
2022-10-22T03:25:25.686Z,17.82
2022-10-22T03:26:25.673Z,17.82
2022-10-22T03:27:25.675Z,17.76
2022-10-22T03:28:25.652Z,18.03
2022-10-22T03:29:25.646Z,17.94
2022-10-22T03:30:25.632Z,17.94
2022-10-22T03:31:25.624Z,18
2022-10-22T03:32:25.613Z,18.07
2022-10-22T03:33:25.610Z,18.09
2022-10-22T03:34:25.590Z,18.15
2022-10-22T03:35:25.581Z,18.12
2022-10-22T03:36:25.572Z,18.22
2022-10-22T03:37:25.560Z,18.18
2022-10-22T03:38:25.556Z,18.25
2022-10-22T03:39:25.553Z,17.95
2022-10-22T03:40:25.556Z,17.63
2022-10-22T03:41:25.519Z,17.33
2022-10-22T03:42:25.507Z,17.25
2022-10-22T03:43:25.498Z,17.23
2022-10-22T03:44:25.501Z,17.14
2022-10-22T03:45:25.511Z,17.15
2022-10-22T03:46:25.473Z,17.14
2022-10-22T03:47:25.456Z,17.08
2022-10-22T03:48:25.461Z,17.26
2022-10-22T03:49:25.443Z,17.53
2022-10-22T03:50:25.434Z,17.41
2022-10-22T03:51:25.422Z,17.55
2022-10-22T03:52:25.404Z,17.66
2022-10-22T03:53:25.393Z,17.54
2022-10-22T03:54:25.384Z,17.41
2022-10-22T03:55:25.379Z,17.51
2022-10-22T03:56:25.364Z,17.41
2022-10-22T03:57:25.354Z,17.59
2022-10-22T03:58:25.343Z,17.35
2022-10-22T03:59:25.333Z,17.13
2022-10-22T04:00:25.321Z,17.15
2022-10-22T04:01:25.316Z,17.13
2022-10-22T04:02:25.303Z,17.08
2022-10-22T04:03:25.296Z,17.18
2022-10-22T04:04:25.275Z,-40
2022-10-22T04:05:25.268Z,-40
2022-10-22T04:06:25.260Z,-40
2022-10-22T04:07:25.247Z,-40
2022-10-22T04:08:25.237Z,-40
2022-10-22T04:09:25.230Z,-40
2022-10-22T04:10:25.220Z,-40
2022-10-22T04:11:25.205Z,-40
2022-10-22T04:12:25.201Z,-40
2022-10-22T04:13:25.183Z,-40
2022-10-22T04:14:25.170Z,-40
2022-10-22T04:15:25.185Z,-40
2022-10-22T04:16:25.149Z,-40
2022-10-22T04:17:25.139Z,-40
2022-10-22T04:18:25.137Z,-40
2022-10-22T04:19:25.122Z,-40
2022-10-22T04:20:25.108Z,-40
2022-10-22T04:21:25.104Z,-40
2022-10-22T04:22:25.087Z,-40
2022-10-22T04:23:25.083Z,-40
2022-10-22T04:24:25.064Z,-40
2022-10-22T04:25:25.056Z,-40
2022-10-22T04:26:25.054Z,-40
2022-10-22T04:27:25.043Z,-40
2022-10-22T04:28:25.024Z,-40
2022-10-22T04:29:25.014Z,-40
2022-10-22T04:30:24.999Z,-40
2022-10-22T04:31:24.993Z,-40
2022-10-22T04:32:24.985Z,-40
2022-10-22T04:33:24.993Z,-40
2022-10-22T04:34:24.965Z,-40
2022-10-22T04:36:24.943Z,-40
2022-10-22T04:37:24.937Z,-40
2022-10-22T04:38:24.916Z,-40
2022-10-22T04:39:24.913Z,-40
2022-10-22T04:40:24.902Z,-40
2022-10-22T04:41:24.894Z,-40
2022-10-22T04:42:24.878Z,-40
2022-10-22T04:43:24.870Z,-40
2022-10-22T04:44:24.855Z,-40
2022-10-22T04:45:24.854Z,-40
2022-10-22T04:46:24.846Z,-40
2022-10-22T04:47:24.829Z,-40
2022-10-22T04:48:24.812Z,-40
2022-10-22T04:49:24.807Z,-40
2022-10-22T04:50:24.791Z,-40
2022-10-22T04:51:24.799Z,-40
2022-10-22T04:52:24.776Z,-40
2022-10-22T04:53:24.764Z,-40
2022-10-22T04:54:24.750Z,-40
2022-10-22T04:55:24.736Z,-40
2022-10-22T04:56:24.729Z,-40
2022-10-22T04:57:24.737Z,-40
2022-10-22T04:58:24.713Z,-40
2022-10-22T04:59:24.725Z,-40
2022-10-22T05:00:24.693Z,-40
2022-10-22T05:01:24.679Z,-40
2022-10-22T05:02:24.669Z,-40
2022-10-22T05:03:24.660Z,-40
2022-10-22T05:04:24.663Z,-40
2022-10-22T05:05:24.636Z,-40
2022-10-22T05:06:24.624Z,-40
2022-10-22T05:07:24.611Z,-40
2022-10-22T05:08:24.604Z,-40
2022-10-22T05:09:24.594Z,-40
2022-10-22T05:10:24.598Z,-40
2022-10-22T05:11:24.575Z,-40
2022-10-22T05:12:24.560Z,-40
2022-10-22T05:13:24.548Z,-40
2022-10-22T05:14:24.540Z,-40
2022-10-22T05:15:24.532Z,-40
2022-10-22T05:16:24.538Z,-40
2022-10-22T05:17:24.505Z,-40
2022-10-22T05:18:24.497Z,-40
2022-10-22T05:19:24.484Z,-40
2022-10-22T05:20:24.478Z,-40
2022-10-22T05:21:24.464Z,-40
2022-10-22T05:22:24.466Z,-40
2022-10-22T05:23:24.448Z,-40
2022-10-22T05:24:24.434Z,-40
2022-10-22T05:25:24.425Z,-40
2022-10-22T05:26:24.422Z,-40
2022-10-22T05:27:24.403Z,-40
2022-10-22T05:28:24.401Z,-40
2022-10-22T05:29:24.382Z,-40
2022-10-22T05:30:24.379Z,-40
2022-10-22T05:31:24.365Z,-40
2022-10-22T05:32:24.351Z,-40
2022-10-22T05:33:24.359Z,-40
2022-10-22T05:34:24.361Z,-40
2022-10-22T05:35:24.325Z,-40
2022-10-22T05:36:24.306Z,-40
2022-10-22T05:37:24.296Z,-40
2022-10-22T05:38:24.287Z,-40
2022-10-22T05:39:24.277Z,-40
2022-10-22T05:40:24.285Z,-40
2022-10-22T05:41:24.254Z,-40
2022-10-22T05:42:24.253Z,-40
2022-10-22T05:43:24.235Z,-40
2022-10-22T05:44:24.230Z,-40
2022-10-22T05:45:24.222Z,-40
2022-10-22T05:46:24.229Z,-40
2022-10-22T05:47:24.195Z,-40
2022-10-22T05:48:24.184Z,-40
2022-10-22T05:49:24.172Z,-40
2022-10-22T05:50:24.163Z,-40
2022-10-22T05:51:24.168Z,-40
2022-10-22T05:52:24.161Z,-40
2022-10-22T05:53:24.130Z,-40
2022-10-22T05:54:31.923Z,-40
2022-10-22T06:03:32.430Z,17.76
2022-10-22T06:07:29.613Z,18.1
2022-10-22T06:12:22.541Z,18.18
2022-10-22T06:13:22.536Z,17.81
2022-10-22T06:14:22.479Z,17.36
2022-10-22T06:15:22.409Z,17.79
2022-10-22T06:16:22.421Z,17.95
2022-10-22T06:17:22.406Z,17.92
2022-10-22T06:18:22.371Z,17.66
2022-10-22T06:19:22.419Z,17.57
2022-10-22T06:20:22.406Z,17.43
2022-10-22T06:21:22.456Z,17.51
2022-10-22T06:22:23.349Z,17.43
2022-10-22T06:23:22.314Z,17.22
2022-10-22T06:24:22.414Z,17.62
2022-10-22T06:25:22.426Z,17.48
2022-10-22T06:26:22.428Z,17.59
2022-10-22T06:27:22.320Z,17.47
2022-10-22T06:29:22.305Z,17.66
2022-10-22T06:30:23.249Z,17.47
2022-10-22T06:31:22.282Z,17.41
2022-10-22T06:32:22.360Z,17.46
2022-10-22T06:33:22.242Z,17.67
2022-10-22T06:34:22.360Z,17.74
2022-10-22T06:35:22.260Z,17.88
2022-10-22T06:36:22.296Z,17.53
2022-10-22T06:37:22.189Z,18.07
2022-10-22T06:38:22.164Z,18
2022-10-22T06:39:22.169Z,17.84
2022-10-22T06:40:22.370Z,17.7
2022-10-22T06:41:22.136Z,17.44
2022-10-22T06:42:22.213Z,17.55
2022-10-22T06:43:22.205Z,17.48
2022-10-22T06:44:22.161Z,17.48
2022-10-22T06:45:23.130Z,17.81
2022-10-22T06:46:23.087Z,17.48
2022-10-22T06:47:23.257Z,17.43
2022-10-22T06:48:22.054Z,17.3
2022-10-22T06:49:22.063Z,17.4
2022-10-22T06:50:22.038Z,18.17
2022-10-22T06:51:22.010Z,18.15
2022-10-22T06:52:22.039Z,17.69
2022-10-22T06:53:22.188Z,17.5
2022-10-22T06:54:23.084Z,17.41
2022-10-22T06:55:21.995Z,17.57
2022-10-22T06:56:22.071Z,17.63
2022-10-22T06:57:23.051Z,17.41
2022-10-22T06:58:22.110Z,17.5
2022-10-22T06:59:22.947Z,17.59
2022-10-22T07:00:22.072Z,18.44
2022-10-22T07:01:21.997Z,19.13
2022-10-22T07:02:21.974Z,18.73
2022-10-22T07:03:23.055Z,18.49
2022-10-22T07:04:22.949Z,18.54
2022-10-22T07:05:22.950Z,18.59
2022-10-22T07:06:22.085Z,18.44
2022-10-22T07:07:22.123Z,18.06
2022-10-22T07:08:21.933Z,18
2022-10-22T07:09:21.870Z,18.03
2022-10-22T07:10:21.818Z,18.04
2022-10-22T07:11:21.809Z,17.79
2022-10-22T07:12:22.865Z,18.07
2022-10-22T07:13:22.810Z,18.03
2022-10-22T07:14:21.789Z,18.18
2022-10-22T07:15:21.865Z,18.31
2022-10-22T07:16:21.965Z,18.76
2022-10-22T07:17:21.761Z,18.73
2022-10-22T07:18:21.819Z,18.58
2022-10-22T07:19:21.722Z,18.57
2022-10-22T07:20:22.140Z,18.47
2022-10-22T07:21:22.852Z,18.42
2022-10-22T07:22:21.811Z,18.4
2022-10-22T07:23:21.714Z,18.7
2022-10-22T07:24:21.893Z,18.87
2022-10-22T07:25:21.813Z,18.87
2022-10-22T07:26:21.730Z,18.94
2022-10-22T07:27:21.732Z,18.92
2022-10-22T07:28:22.766Z,18.61
2022-10-22T07:29:22.624Z,18.87
2022-10-22T07:30:21.623Z,18.84
2022-10-22T07:31:21.655Z,19.02
2022-10-22T07:32:21.730Z,19.33
2022-10-22T07:33:21.742Z,20.31
2022-10-22T07:34:21.549Z,21.3
2022-10-22T07:35:21.667Z,22.23
2022-10-22T07:36:22.591Z,23.31
2022-10-22T07:37:22.675Z,23.98
2022-10-22T07:38:21.860Z,24.98
2022-10-22T07:39:21.857Z,25.84
2022-10-22T07:40:21.712Z,26.06
2022-10-22T07:41:21.705Z,25.64
2022-10-22T07:42:21.505Z,24.64
2022-10-22T07:43:23.232Z,23.45
2022-10-22T07:44:22.899Z,21.98
2022-10-22T07:45:22.576Z,22.01
2022-10-22T07:46:21.671Z,21.98
2022-10-22T07:47:22.526Z,21.66
2022-10-22T07:48:21.453Z,20.91
2022-10-22T07:49:21.555Z,20.38
2022-10-22T07:50:22.617Z,20.61
2022-10-22T07:51:21.468Z,20.25
2022-10-22T07:52:21.403Z,20.08
2022-10-22T07:53:22.436Z,19.87
2022-10-22T07:54:21.350Z,19.73
2022-10-22T07:55:21.387Z,-40
2022-10-22T07:56:21.327Z,-40
2022-10-22T07:57:21.329Z,-40
2022-10-22T07:58:21.508Z,-40
2022-10-22T07:59:21.323Z,-40
2022-10-22T08:00:21.279Z,-40
2022-10-22T08:01:21.296Z,-40
2022-10-22T08:02:21.373Z,-40
2022-10-22T08:03:21.410Z,-40
2022-10-22T08:04:21.423Z,-40
2022-10-22T08:05:21.240Z,-40
2022-10-22T08:06:21.223Z,-40
2022-10-22T08:07:21.328Z,-40
2022-10-22T08:08:21.331Z,-40
2022-10-22T08:09:22.233Z,-40
2022-10-22T08:10:21.161Z,-40
2022-10-22T08:11:21.333Z,-40
2022-10-22T08:12:22.123Z,-40
2022-10-22T08:13:22.210Z,-40
2022-10-22T08:14:22.453Z,-40
2022-10-22T08:15:21.222Z,-40
2022-10-22T08:16:21.188Z,-40
2022-10-22T08:17:21.244Z,-40
2022-10-22T08:18:21.107Z,-40
2022-10-22T08:19:21.176Z,-40
2022-10-22T08:20:21.088Z,-40
2022-10-22T08:21:21.304Z,-40
2022-10-22T08:22:21.076Z,-40
2022-10-22T08:23:21.068Z,-40
2022-10-22T08:24:21.155Z,-40
2022-10-22T08:25:21.066Z,-40
2022-10-22T08:26:21.160Z,-40
2022-10-22T08:27:22.002Z,-40
2022-10-22T08:28:21.018Z,-40
2022-10-22T08:29:22.210Z,-40
2022-10-22T08:30:20.975Z,-40
2022-10-22T08:31:22.239Z,-40
2022-10-22T08:32:22.050Z,-40
2022-10-22T08:33:21.398Z,-40
2022-10-22T08:34:20.945Z,-40
2022-10-22T08:35:22.287Z,-40
2022-10-22T08:36:22.036Z,-40
2022-10-22T08:37:20.937Z,-40
2022-10-22T08:38:21.266Z,-40
2022-10-22T08:39:20.898Z,-40
2022-10-22T08:40:20.946Z,-40
2022-10-22T08:41:20.853Z,-40
2022-10-22T08:42:22.056Z,-40
2022-10-22T08:43:20.969Z,-40
2022-10-22T08:44:22.065Z,-40
2022-10-22T08:45:22.050Z,-40
2022-10-22T08:46:20.878Z,-40
2022-10-22T08:47:20.851Z,-40
2022-10-22T08:48:21.119Z,-40
2022-10-22T08:49:22.031Z,-40
2022-10-22T08:50:21.772Z,-40
2022-10-22T08:51:22.201Z,-40
2022-10-22T08:52:21.855Z,-40
2022-10-22T08:53:21.716Z,-40
2022-10-22T08:54:20.926Z,-40
2022-10-22T08:55:21.746Z,-40
2022-10-22T08:56:21.882Z,-40
2022-10-22T08:57:20.934Z,-40
2022-10-22T08:58:21.922Z,-40
2022-10-22T08:59:22.062Z,-40
2022-10-22T09:00:21.914Z,-40
2022-10-22T09:01:21.155Z,-40
2022-10-22T09:02:21.083Z,-40
2022-10-22T09:03:20.821Z,-40
2022-10-22T09:04:20.613Z,-40
2022-10-22T09:05:20.745Z,-40
2022-10-22T09:06:20.755Z,-40
2022-10-22T09:07:20.690Z,-40
2022-10-22T09:08:20.901Z,-40
2022-10-22T09:09:20.924Z,-40
2022-10-22T09:10:20.683Z,-40
2022-10-22T09:11:20.627Z,-40
2022-10-22T09:12:20.647Z,-40
2022-10-22T09:13:20.671Z,-40
2022-10-22T09:17:18.405Z,22.8
2022-10-22T09:21:09.154Z,21.61
2022-10-22T09:26:30.186Z,25.27
2022-10-22T09:32:52.386Z,25.91
2022-10-22T09:37:12.357Z,22.65
2022-10-22T09:40:05.116Z,23.4
2022-10-22T09:41:05.062Z,22.77
2022-10-22T09:42:06.121Z,22.82
2022-10-22T09:43:06.016Z,22.92
2022-10-22T09:44:04.985Z,23.31
2022-10-22T09:45:05.016Z,23.4
2022-10-22T09:46:05.025Z,23.05
2022-10-22T09:47:05.005Z,23.64
2022-10-22T09:48:04.991Z,23.95
2022-10-22T09:49:05.919Z,23.98
2022-10-22T09:50:04.910Z,23.17
2022-10-22T09:51:05.607Z,22.39
2022-10-22T09:52:05.275Z,21.94
2022-10-22T09:53:04.865Z,22.09
2022-10-22T09:54:04.871Z,22.17
2022-10-22T09:56:23.473Z,22.31
2022-10-22T09:57:23.390Z,22.46
2022-10-22T09:58:23.387Z,22.28
2022-10-22T09:59:23.373Z,22.34
2022-10-22T10:00:23.379Z,22.37
2022-10-22T10:01:23.343Z,22.25
2022-10-22T10:02:23.339Z,22.56
2022-10-22T10:03:23.337Z,23.42
2022-10-22T10:05:23.323Z,24.53
2022-10-22T10:06:23.293Z,25.2
2022-10-22T10:07:23.283Z,23.89
2022-10-22T10:08:23.287Z,23.55
2022-10-22T10:09:23.291Z,23.95
2022-10-22T10:10:23.289Z,24.23
2022-10-22T10:11:23.269Z,24.52
2022-10-22T10:12:23.251Z,24.69
2022-10-22T10:13:23.216Z,24.5
2022-10-22T10:14:23.208Z,24.94
2022-10-22T10:15:23.201Z,24.35
2022-10-22T10:16:23.187Z,24.75
2022-10-22T10:17:23.183Z,25.02
2022-10-22T10:18:23.228Z,25.13
2022-10-22T10:19:23.161Z,25.44
2022-10-22T10:20:23.156Z,25.38
2022-10-22T10:21:23.132Z,25.3
2022-10-22T10:22:23.782Z,25.12
2022-10-22T10:23:23.167Z,24.64
2022-10-22T10:24:23.139Z,24.5
2022-10-22T10:25:23.100Z,23.5
2022-10-22T10:26:23.094Z,23.82
2022-10-22T10:27:23.077Z,23.57
2022-10-22T10:28:23.078Z,23.68
2022-10-22T10:29:23.071Z,23.55
2022-10-22T10:30:23.066Z,23.6
2022-10-22T10:31:23.066Z,24.08
2022-10-22T10:32:23.018Z,24.08
2022-10-22T10:33:23.779Z,24.5
2022-10-22T10:34:22.998Z,24.5
2022-10-22T10:35:22.994Z,24.26
2022-10-22T10:36:22.974Z,24.07
2022-10-22T10:37:22.999Z,23.95
2022-10-22T10:38:22.982Z,24.05
2022-10-22T10:39:22.944Z,24.27
2022-10-22T10:40:22.940Z,24.52
2022-10-22T10:41:22.969Z,24.77
2022-10-22T10:42:22.914Z,25.16
2022-10-22T10:43:23.049Z,24.82
2022-10-22T10:44:22.898Z,24.63
2022-10-22T10:45:22.906Z,24.75
2022-10-22T10:46:22.885Z,25.01
2022-10-22T10:47:22.857Z,24.83
2022-10-22T10:48:22.876Z,24.67
2022-10-22T10:49:22.844Z,24.34
2022-10-22T10:50:22.844Z,24.5
2022-10-22T10:51:22.814Z,24.71
2022-10-22T10:52:22.822Z,24.9
2022-10-22T10:53:22.820Z,24.52
2022-10-22T10:54:22.783Z,23.89
2022-10-22T10:55:22.798Z,24.12
2022-10-22T10:56:22.775Z,23.8
2022-10-22T10:57:22.803Z,24.14
2022-10-22T10:58:22.763Z,24.54
2022-10-22T10:59:22.730Z,23.98
2022-10-22T11:00:22.736Z,24.31
2022-10-22T11:01:22.839Z,24.52
2022-10-22T11:02:22.699Z,24.73
2022-10-22T11:03:22.700Z,24.9
2022-10-22T11:04:22.698Z,25.35
2022-10-22T11:05:22.726Z,24.97
2022-10-22T11:06:22.783Z,25
2022-10-22T11:08:22.636Z,25.13
2022-10-22T11:09:22.626Z,24.85
2022-10-22T11:10:22.614Z,25
2022-10-22T11:11:22.634Z,25.46
2022-10-22T11:12:22.593Z,26.54
2022-10-22T11:13:22.583Z,26.68
2022-10-22T11:14:22.587Z,26.94
2022-10-22T11:15:22.567Z,27.29
2022-10-22T11:16:22.570Z,28.36
2022-10-22T11:17:22.540Z,28.62
2022-10-22T11:18:22.530Z,27.41
2022-10-22T11:19:22.529Z,26.57
2022-10-22T11:20:22.513Z,27.06
2022-10-22T11:21:22.654Z,27.92
2022-10-22T11:22:22.494Z,29.01
2022-10-22T11:23:22.484Z,29.71
2022-10-22T11:24:22.487Z,30.53
2022-10-22T11:25:22.456Z,-40
2022-10-22T11:26:22.459Z,-40
2022-10-22T11:27:22.451Z,-40
2022-10-22T11:28:22.427Z,-40
2022-10-22T11:29:22.434Z,-40
2022-10-22T11:30:22.406Z,-40
2022-10-22T11:31:22.403Z,-40
2022-10-22T11:32:22.408Z,-40
2022-10-22T11:33:22.396Z,-40
2022-10-22T11:34:22.366Z,-40
2022-10-22T11:35:22.351Z,-40
2022-10-22T11:36:22.356Z,-40
2022-10-22T11:37:22.337Z,-40
2022-10-22T11:38:22.324Z,-40
2022-10-22T11:39:22.315Z,-40
2022-10-22T11:40:22.301Z,-40
2022-10-22T11:41:22.304Z,-40
2022-10-22T11:42:22.283Z,-40
2022-10-22T11:43:22.293Z,-40
2022-10-22T11:44:22.257Z,-40
2022-10-22T11:45:22.246Z,-40
2022-10-22T11:46:22.245Z,-40
2022-10-22T11:47:22.225Z,-40
2022-10-22T11:48:22.218Z,-40
2022-10-22T11:49:22.233Z,-40
2022-10-22T11:50:22.248Z,-40
2022-10-22T11:51:22.185Z,-40
2022-10-22T11:52:22.192Z,-40
2022-10-22T11:53:22.183Z,-40
2022-10-22T11:54:22.172Z,-40
2022-10-22T11:55:22.168Z,-40
2022-10-22T11:56:22.133Z,-40
2022-10-22T11:57:22.120Z,-40
2022-10-22T11:58:22.108Z,-40
2022-10-22T11:59:22.107Z,-40
2022-10-22T12:00:22.105Z,-40
2022-10-22T12:01:22.091Z,-40
2022-10-22T12:02:22.087Z,-40
2022-10-22T12:03:22.121Z,-40
2022-10-22T12:04:22.043Z,-40
2022-10-22T12:05:22.040Z,-40
2022-10-22T12:06:22.041Z,-40
2022-10-22T12:07:22.024Z,-40
2022-10-22T12:08:22.015Z,-40
2022-10-22T12:09:29.653Z,-40
2022-10-22T12:10:21.982Z,-40
2022-10-22T12:11:21.989Z,-40
2022-10-22T12:12:21.969Z,-40
2022-10-22T12:13:21.950Z,-40
2022-10-22T12:14:21.945Z,-40
2022-10-22T12:15:21.931Z,-40
2022-10-22T12:16:21.918Z,-40
2022-10-22T12:17:21.946Z,-40
2022-10-22T12:18:21.912Z,-40
2022-10-22T12:19:21.885Z,-40
2022-10-22T12:20:22.005Z,-40
2022-10-22T12:21:22.866Z,-40
2022-10-22T12:22:21.856Z,-40
2022-10-22T12:23:29.589Z,-40
2022-10-22T12:24:22.878Z,-40
2022-10-22T12:25:21.830Z,-40
2022-10-22T12:26:21.955Z,-40
2022-10-22T12:27:21.833Z,-40
2022-10-22T12:28:21.794Z,-40
2022-10-22T12:29:21.796Z,-40
2022-10-22T12:30:21.786Z,-40
2022-10-22T12:31:21.802Z,-40
2022-10-22T12:32:21.759Z,-40
2022-10-22T12:33:21.780Z,-40
2022-10-22T12:34:21.874Z,-40
2022-10-22T12:35:21.844Z,-40
2022-10-22T12:36:21.771Z,-40
2022-10-22T12:37:21.716Z,-40
2022-10-22T12:38:21.748Z,-40
2022-10-22T12:39:21.674Z,-40
2022-10-22T12:40:21.668Z,-40
2022-10-22T12:41:21.668Z,-40
2022-10-22T12:42:21.647Z,-40
2022-10-22T12:43:21.640Z,-40
2022-10-22T12:44:21.634Z,-40
2022-10-22T12:45:21.610Z,-40
2022-10-22T12:46:21.622Z,-40
2022-10-22T12:47:21.589Z,-40
2022-10-22T12:48:21.672Z,-40
2022-10-22T12:49:21.585Z,-40
2022-10-22T12:50:21.556Z,-40
2022-10-22T12:51:21.550Z,-40
2022-10-22T12:52:22.369Z,-40
2022-10-22T12:53:21.542Z,-40
2022-10-22T12:54:21.527Z,-40
2022-10-22T12:55:21.506Z,-40
2022-10-22T12:56:21.496Z,-40
2022-10-22T12:57:21.487Z,-40
2022-10-22T12:58:21.488Z,-40
2022-10-22T12:59:21.460Z,-40
2022-10-22T13:00:21.466Z,-40
2022-10-22T13:01:21.448Z,-40
2022-10-22T13:02:21.435Z,-40
2022-10-22T13:21:55.429Z,23.31
2022-10-22T13:22:55.441Z,22.38
2022-10-22T13:23:55.392Z,21.95
2022-10-22T13:24:55.405Z,21.94
2022-10-22T13:25:55.365Z,23.43
2022-10-22T13:26:55.353Z,23.97
2022-10-22T13:27:55.367Z,24.07
2022-10-22T13:28:55.418Z,24.49
2022-10-22T13:29:55.504Z,24.63
2022-10-22T13:30:55.321Z,24.47
2022-10-22T13:31:55.302Z,24.73
2022-10-22T13:32:55.300Z,24.37
2022-10-22T13:33:55.281Z,23.46
2022-10-22T13:34:55.273Z,23.67
2022-10-22T13:35:55.262Z,22.92
2022-10-22T13:36:55.257Z,22.19
2022-10-22T13:37:55.242Z,23.14
2022-10-22T13:38:55.232Z,24.32
2022-10-22T13:39:55.221Z,24.24
2022-10-22T13:40:55.211Z,24
2022-10-22T13:41:55.192Z,25.19
2022-10-22T13:42:55.185Z,25.27
2022-10-22T13:43:55.180Z,25.44
2022-10-22T13:44:55.168Z,25.13
2022-10-22T13:45:55.169Z,24.85
2022-10-22T13:46:55.144Z,24.37
2022-10-22T13:47:55.132Z,23.2
2022-10-22T13:48:55.141Z,22.54
2022-10-22T13:50:55.106Z,21.88
2022-10-22T13:51:55.103Z,21.41
2022-10-22T13:52:55.081Z,21.44
2022-10-22T13:53:55.067Z,21.56
2022-10-22T13:54:55.091Z,21.61
2022-10-22T13:55:55.046Z,21.39
2022-10-22T13:56:55.036Z,21.42
2022-10-22T13:57:55.030Z,22.78
2022-10-22T13:58:55.018Z,23.64
2022-10-22T13:59:55.009Z,24.37
2022-10-22T14:00:55.002Z,25.28
2022-10-22T14:06:46.827Z,25.98
2022-10-22T14:07:46.656Z,25.62
2022-10-22T14:11:19.616Z,24.13
2022-10-22T14:22:53.500Z,26.18
2022-10-22T14:23:53.478Z,26.15
2022-10-22T14:24:53.483Z,25.72
2022-10-22T14:25:53.426Z,25.44
2022-10-22T14:26:53.414Z,25.27
2022-10-22T14:27:53.437Z,25.27
2022-10-22T14:28:53.402Z,24.91
2022-10-22T14:29:53.442Z,24.77
2022-10-22T14:30:53.405Z,25
2022-10-22T14:31:53.374Z,25.13
2022-10-22T14:32:53.368Z,24.64